createdAt,value
2022-11-20T00:02:00.361Z,6.03
2022-11-20T00:07:04.895Z,6.60
2022-11-20T00:12:08.299Z,6.67
2022-11-20T00:17:11.415Z,7.20
2022-11-20T00:22:16.523Z,6.27
2022-11-20T00:27:19.777Z,7.00
2022-11-20T00:32:22.984Z,7.20
2022-11-20T00:37:27.472Z,8.20
2022-11-20T00:42:30.560Z,8.37
2022-11-20T00:47:33.651Z,8.40
2022-11-20T00:52:38.178Z,7.97
2022-11-20T00:57:41.263Z,7.93
2022-11-20T01:02:44.368Z,9.03
2022-11-20T01:07:48.805Z,10.60
2022-11-20T01:13:11.903Z,11.20
2022-11-20T01:18:15.259Z,10.53
2022-11-20T01:23:19.723Z,9.93
2022-11-20T01:28:23.998Z,10.20
2022-11-20T01:33:27.538Z,9.80
2022-11-20T01:38:32.003Z,10.07
2022-11-20T01:43:35.570Z,7.87
2022-11-20T01:48:45.600Z,9.87
2022-11-20T01:53:52.173Z,10.93
2022-11-20T01:58:58.983Z,9.60
2022-11-20T02:04:02.793Z,10.87
2022-11-20T02:09:07.257Z,11.40
2022-11-20T02:14:10.703Z,11.33
2022-11-20T02:19:24.238Z,11.33
2022-11-20T02:24:28.787Z,9.70
2022-11-20T02:29:37.544Z,9.67
2022-11-20T02:34:40.611Z,10.87
2022-11-20T02:39:46.789Z,11.33
2022-11-20T02:44:49.860Z,9.77
2022-11-20T02:49:52.924Z,11.13
2022-11-20T02:54:57.527Z,10.37
2022-11-20T03:00:00.619Z,10.70
2022-11-20T03:05:03.798Z,9.13
2022-11-20T03:10:09.446Z,10.20
2022-11-20T03:15:12.665Z,10.43
2022-11-20T03:20:15.892Z,9.33
2022-11-20T03:25:20.421Z,14.50
2022-11-20T03:30:27.568Z,14.37
2022-11-20T03:35:33.522Z,13.90
2022-11-20T03:40:37.955Z,12.53
2022-11-20T03:45:41.008Z,6.63
2022-11-20T03:50:44.132Z,4.63
2022-11-20T03:55:53.279Z,4.00
2022-11-20T04:00:56.369Z,3.50
2022-11-20T04:06:04.231Z,4.17
2022-11-20T04:11:16.829Z,3.70
2022-11-20T04:16:20.721Z,3.90
2022-11-20T04:21:24.586Z,3.63
2022-11-20T04:26:30.788Z,3.50
2022-11-20T04:31:35.547Z,3.40
2022-11-20T04:36:38.640Z,3.27
2022-11-20T04:41:43.350Z,3.70
2022-11-20T04:46:46.425Z,3.77
2022-11-20T04:51:49.477Z,3.40
2022-11-20T04:56:53.928Z,3.33
2022-11-20T05:01:57.182Z,3.13
2022-11-20T05:07:00.338Z,3.37
2022-11-20T05:12:05.218Z,3.30
2022-11-20T05:17:08.353Z,3.57
2022-11-20T05:22:11.408Z,3.50
2022-11-20T05:27:15.868Z,3.10
2022-11-20T05:32:18.951Z,3.57
2022-11-20T05:37:22.052Z,3.10
2022-11-20T05:42:32.370Z,3.43
2022-11-20T05:47:36.279Z,3.10
2022-11-20T05:52:39.368Z,3.23
2022-11-20T05:57:43.817Z,3.20
2022-11-20T06:02:46.954Z,2.80
2022-11-20T06:07:50.113Z,3.00
2022-11-20T06:12:54.554Z,3.30
2022-11-20T06:17:59.939Z,2.80
2022-11-20T06:23:02.995Z,3.20
2022-11-20T06:28:07.590Z,2.73
2022-11-20T06:33:10.667Z,3.27
2022-11-20T06:38:13.762Z,3.40
2022-11-20T06:43:18.215Z,4.07
2022-11-20T06:48:21.337Z,3.63
2022-11-20T06:53:25.105Z,2.90
2022-11-20T06:58:30.849Z,2.60
2022-11-20T07:03:33.976Z,2.60
2022-11-20T07:08:37.406Z,2.63
2022-11-20T07:13:41.934Z,2.40
2022-11-20T07:18:50.241Z,2.27
2022-11-20T07:23:53.988Z,2.13
2022-11-20T07:28:58.445Z,2.23
2022-11-20T07:34:01.678Z,2.40
2022-11-20T07:39:04.917Z,2.47
2022-11-20T07:44:09.408Z,2.17
2022-11-20T07:49:12.617Z,2.63
2022-11-20T07:54:15.674Z,3.10
2022-11-20T07:59:20.440Z,2.53
2022-11-20T08:04:24.551Z,2.43
2022-11-20T08:09:27.609Z,2.53
2022-11-20T08:14:32.071Z,2.40
2022-11-20T08:19:35.147Z,2.13
2022-11-20T08:24:38.270Z,2.67
2022-11-20T08:29:42.701Z,2.90
2022-11-20T08:34:45.782Z,2.67
2022-11-20T08:39:48.838Z,2.37
2022-11-20T08:44:53.290Z,3.23
2022-11-20T08:49:56.373Z,2.20
2022-11-20T08:54:59.473Z,2.50
2022-11-20T09:00:06.783Z,2.20
2022-11-20T09:05:10.521Z,2.30
2022-11-20T09:10:24.013Z,3.00
2022-11-20T09:15:29.237Z,2.60
2022-11-20T09:20:33.415Z,2.80
2022-11-20T09:25:36.527Z,2.50
2022-11-20T09:30:41.173Z,2.50
2022-11-20T09:35:45.626Z,2.50
2022-11-20T09:40:54.328Z,2.90
2022-11-20T09:46:09.683Z,3.50
2022-11-20T09:51:25.653Z,4.23
2022-11-20T09:56:30.327Z,3.23
2022-11-20T10:01:39.254Z,2.60
2022-11-20T10:07:04.104Z,2.47
2022-11-20T10:12:21.591Z,2.57
2022-11-20T10:17:41.628Z,2.17
2022-11-20T10:22:57.036Z,2.53
2022-11-20T10:28:25.083Z,2.87
2022-11-20T10:33:50.135Z,2.33
2022-11-20T10:39:01.423Z,2.37
2022-11-20T10:44:11.513Z,2.23
2022-11-20T10:49:18.931Z,2.77
2022-11-20T10:54:26.288Z,2.83
2022-11-20T10:59:40.707Z,2.33
2022-11-20T11:04:47.940Z,2.13
2022-11-20T11:09:53.531Z,2.33
2022-11-20T11:14:58.545Z,2.13
2022-11-20T11:20:06.499Z,2.20
2022-11-20T11:25:26.215Z,2.00
2022-11-20T11:30:32.977Z,1.83
2022-11-20T11:35:49.968Z,1.60
2022-11-20T11:40:57.424Z,1.70
2022-11-20T11:46:01.376Z,1.47
2022-11-20T11:51:10.544Z,1.60
2022-11-20T11:56:15.312Z,1.70
2022-11-20T12:01:32.941Z,1.77
2022-11-20T12:06:41.288Z,1.67
2022-11-20T12:11:51.363Z,1.93
2022-11-20T12:16:56.657Z,2.20
2022-11-20T12:22:07.569Z,1.80
2022-11-20T12:27:42.099Z,1.80
2022-11-20T12:33:15.640Z,1.40
2022-11-20T12:38:54.255Z,1.60
2022-11-20T12:44:27.287Z,1.90
2022-11-20T12:49:40.141Z,1.70
2022-11-20T12:55:01.921Z,1.63
2022-11-20T13:00:16.869Z,1.70
2022-11-20T13:05:23.224Z,1.80
2022-11-20T13:10:34.747Z,1.90
2022-11-20T13:15:50.724Z,1.87
2022-11-20T13:20:53.805Z,1.80
2022-11-20T13:26:08.326Z,1.80
2022-11-20T13:31:36.774Z,1.90
2022-11-20T13:36:51.643Z,1.70
2022-11-20T13:41:58.167Z,1.60
2022-11-20T13:47:02.788Z,2.10
2022-11-20T13:52:30.735Z,2.40
2022-11-20T13:57:49.290Z,6.83
2022-11-20T14:03:04.293Z,3.17
2022-11-20T14:08:15.392Z,3.23
2022-11-20T14:13:20.895Z,3.03
2022-11-20T14:18:27.511Z,2.80
2022-11-20T14:23:31.394Z,2.73
2022-11-20T14:28:34.580Z,2.00
2022-11-20T14:33:40.001Z,2.77
2022-11-20T14:38:43.595Z,2.00
2022-11-20T14:43:49.040Z,1.90
2022-11-20T14:48:56.563Z,1.73
2022-11-20T14:54:13.262Z,1.70
2022-11-20T14:59:25.740Z,1.40
2022-11-20T15:04:30.537Z,1.53
2022-11-20T15:09:34.665Z,1.90
2022-11-20T15:14:39.080Z,2.10
2022-11-20T15:19:43.671Z,1.53
2022-11-20T15:24:46.846Z,1.70
2022-11-20T15:29:50.123Z,1.83
2022-11-20T15:34:54.602Z,1.60
2022-11-20T15:39:57.662Z,1.93
2022-11-20T15:45:01.155Z,3.20
2022-11-20T15:50:06.320Z,2.13
2022-11-20T15:55:11.934Z,2.13
2022-11-20T16:00:19.331Z,2.00
2022-11-20T16:05:30.628Z,2.60
2022-11-20T16:10:33.725Z,2.63
2022-11-20T16:15:49.178Z,2.13
2022-11-20T16:20:55.258Z,2.07
2022-11-20T16:25:58.326Z,2.90
2022-11-20T16:31:10.838Z,1.70
2022-11-20T16:36:17.023Z,3.43
2022-11-20T16:41:20.092Z,2.90
2022-11-20T16:46:25.065Z,2.90
2022-11-20T16:51:31.506Z,3.40
2022-11-20T16:56:34.855Z,3.20
2022-11-20T17:01:40.287Z,3.10
2022-11-20T17:06:45.876Z,2.20
2022-11-20T17:11:50.247Z,3.57
2022-11-20T17:16:53.372Z,3.30
2022-11-20T17:21:57.819Z,3.60
2022-11-20T17:27:00.891Z,4.07
2022-11-20T17:32:03.957Z,3.93
2022-11-20T17:37:08.417Z,3.23
2022-11-20T17:42:29.495Z,3.70
2022-11-20T17:47:32.600Z,2.90
2022-11-20T17:52:37.053Z,2.93
2022-11-20T17:57:56.822Z,2.60
2022-11-20T18:03:00.179Z,2.10
2022-11-20T18:08:04.636Z,2.20
2022-11-20T18:13:07.716Z,1.67
2022-11-20T18:18:10.790Z,1.60
2022-11-20T18:23:15.219Z,1.87
2022-11-20T18:28:19.800Z,2.33
2022-11-20T18:33:28.158Z,2.67
2022-11-20T18:38:32.887Z,3.43
2022-11-20T18:43:53.696Z,2.50
2022-11-20T18:48:56.808Z,2.37
2022-11-20T18:54:01.412Z,2.20
2022-11-20T18:59:04.950Z,1.83
2022-11-20T19:04:08.976Z,3.47
2022-11-20T19:09:14.765Z,2.10
2022-11-20T19:14:17.816Z,2.33
2022-11-20T19:19:21.006Z,7.07
2022-11-20T19:24:27.483Z,4.70
2022-11-20T19:29:31.190Z,4.40
2022-11-20T19:34:34.523Z,6.13
2022-11-20T19:39:39.149Z,4.60
2022-11-20T19:44:42.233Z,6.30
2022-11-20T19:49:45.321Z,5.57
2022-11-20T19:54:49.799Z,4.20
2022-11-20T19:59:53.303Z,4.00
2022-11-20T20:04:56.481Z,3.67
2022-11-20T20:10:00.969Z,4.87
2022-11-20T20:15:04.124Z,4.00
2022-11-20T20:20:08.363Z,3.93
2022-11-20T20:25:12.972Z,4.07
2022-11-20T20:30:16.660Z,3.27
2022-11-20T20:35:19.759Z,3.37
2022-11-20T20:40:24.256Z,3.60
2022-11-20T20:45:27.566Z,3.50
2022-11-20T20:50:30.715Z,3.33
2022-11-20T20:55:35.729Z,3.43
2022-11-20T21:00:40.621Z,3.30
2022-11-20T21:05:43.825Z,3.40
2022-11-20T21:10:48.374Z,3.13
2022-11-20T21:15:52.596Z,3.70
2022-11-20T21:21:13.542Z,3.90
2022-11-20T21:26:18.163Z,3.27
2022-11-20T21:31:23.559Z,3.00
2022-11-20T21:36:28.461Z,2.97
2022-11-20T21:41:33.294Z,2.67
2022-11-20T21:46:40.193Z,2.30
2022-11-20T21:51:43.267Z,2.00
2022-11-20T21:56:47.840Z,2.37
2022-11-20T22:01:51.151Z,1.70
2022-11-20T22:06:54.278Z,1.60
2022-11-20T22:11:58.905Z,1.90
2022-11-20T22:17:02.090Z,1.70
2022-11-20T22:22:05.181Z,1.83
2022-11-20T22:27:11.762Z,1.70
2022-11-20T22:32:14.908Z,1.70
2022-11-20T22:37:18.171Z,1.47
2022-11-20T22:42:22.719Z,1.70
2022-11-20T22:47:25.885Z,1.80
2022-11-20T22:52:28.983Z,1.77
2022-11-20T22:57:34.113Z,1.90
2022-11-20T23:02:38.521Z,1.70
2022-11-20T23:07:41.616Z,1.60
2022-11-20T23:12:46.239Z,1.63
2022-11-20T23:17:49.290Z,1.70
2022-11-20T23:22:52.356Z,1.60
2022-11-20T23:27:56.795Z,1.40
2022-11-20T23:32:59.845Z,1.10
2022-11-20T23:38:02.897Z,1.30
2022-11-20T23:43:16.282Z,1.10
2022-11-20T23:48:20.207Z,0.90
2022-11-20T23:53:24.107Z,0.90
2022-11-20T23:58:33.080Z,0.90
